Jomi — C6VK4 — position and weather

sailwx.info

Track history (hours):
 
Tides and Currents Weather Stations Pressure Air Temp Water Temp Dewpoint Dewpoint Depression Visibility Wind Speed Wind Dir Waves Ship Positions

Jomi

Last reported at 2015-Jan-16 01:15 UTC. Time now 2015-Jan-26 04:28 UTC.
Position N 40°37' E 022°56'.
Warning: this ship's position is 10 days out of date.

Length 88 m; draft 4.3 m.

Type: Cargo ship. MMSI: 309701000.

Date/timePositionNaut miles runAvg speedWind from/ knotsBaromVisibWave heightAir tempDewpointWater temp
2015-Jan-16 01:15N 40°37' E 022°56'0 0.0
2015-Jan-15 21:28N 40°37' E 022°56'0 0.0
2015-Jan-15 18:12N 40°37' E 022°56'85 7.2
2015-Jan-15 06:21N 39°34' E 024°10'8210.5
2015-Jan-14 22:32N 38°16' E 024°43'2310.0
2015-Jan-14 20:16N 37°54' E 024°35'1810.2
2015-Jan-14 18:33N 37°43' E 024°18'1110.8
2015-Jan-14 17:30N 37°36' E 024°07'2010.2
2015-Jan-14 15:33N 37°40' E 023°43'1010.1
2015-Jan-14 14:33N 37°49' E 023°37'9 9.1
2015-Jan-14 13:33N 37°57' E 023°34'5 4.6
2015-Jan-14 12:31N 38°02' E 023°32'0 0.0
2015-Jan-14 11:31N 38°02' E 023°32'0 0.0
2015-Jan-14 10:31N 38°02' E 023°32'0 0.0
2015-Jan-14 09:31N 38°02' E 023°32'0 0.0
2015-Jan-14 08:31N 38°02' E 023°32'0 0.0
2015-Jan-14 07:31N 38°02' E 023°32'0 0.0
2015-Jan-14 06:31N 38°02' E 023°32'0 0.0
2015-Jan-14 05:31N 38°02' E 023°32'0 0.0
2015-Jan-14 04:31N 38°02' E 023°32'0 0.0
2015-Jan-14 03:28N 38°02' E 023°32'0 0.0
2015-Jan-14 02:31N 38°02' E 023°32'0 0.0
2015-Jan-14 01:31N 38°02' E 023°32'0 0.0
2015-Jan-14 00:31N 38°02' E 023°32'0 0.0
2015-Jan-13 23:31N 38°02' E 023°32'0 0.0
2015-Jan-13 22:31N 38°02' E 023°32'0 0.0
2015-Jan-13 21:31N 38°02' E 023°32'0 0.0
2015-Jan-13 20:31N 38°02' E 023°32'0 0.3
2015-Jan-13 19:31N 38°02' E 023°32'0 0.3
2015-Jan-13 18:31N 38°02' E 023°32'0 0.0
2015-Jan-13 17:31N 38°02' E 023°32'0 0.0
2015-Jan-13 16:31N 38°02' E 023°32'0 0.0
2015-Jan-13 15:31N 38°02' E 023°32'0 0.0
2015-Jan-13 14:31N 38°02' E 023°32'0 0.0
2015-Jan-13 13:31N 38°02' E 023°32'0 0.0
2015-Jan-13 12:31N 38°02' E 023°32'0 0.0
2015-Jan-13 11:31N 38°02' E 023°32'0 0.0
2015-Jan-13 10:28N 38°02' E 023°32'0 0.0
2015-Jan-13 09:28N 38°02' E 023°32'0 0.0
2015-Jan-13 08:28N 38°02' E 023°32'0 0.0
2015-Jan-13 07:34N 38°02' E 023°32'0 0.0
2015-Jan-13 06:33N 38°02' E 023°32'0 0.0
2015-Jan-13 05:33N 38°02' E 023°32'0 0.0
2015-Jan-13 04:30N 38°02' E 023°32'0 0.0
2015-Jan-13 03:33N 38°02' E 023°32'0 0.0
2015-Jan-13 02:33N 38°02' E 023°32'0 0.0
2015-Jan-13 01:33N 38°02' E 023°32'0 0.0
2015-Jan-13 00:33N 38°02' E 023°32'0 0.0
2015-Jan-12 23:33N 38°02' E 023°32'0 0.0
2015-Jan-12 22:33N 38°02' E 023°32'0 0.0
2015-Jan-12 21:33N 38°02' E 023°32'0 0.0
2015-Jan-12 20:33N 38°02' E 023°32'0 0.0
2015-Jan-12 19:33N 38°02' E 023°32'0 0.0
2015-Jan-12 18:33N 38°02' E 023°32'0 0.0
2015-Jan-12 17:30N 38°02' E 023°32'0 0.0
2015-Jan-12 16:30N 38°02' E 023°32'0 0.0
2015-Jan-12 15:31N 38°02' E 023°32'0 0.0
2015-Jan-12 14:26N 38°02' E 023°32'0 0.0
2015-Jan-12 13:07N 38°02' E 023°32'0 0.0
2015-Jan-12 12:22N 38°02' E 023°32'0 0.0
2015-Jan-12 11:31N 38°02' E 023°32'0 0.0
2015-Jan-12 10:31N 38°02' E 023°32'0 0.0
2015-Jan-12 09:31N 38°02' E 023°32'0 0.0
2015-Jan-12 08:31N 38°02' E 023°32'0 0.0
2015-Jan-12 07:25N 38°02' E 023°32'6 6.9
2015-Jan-12 06:33N 37°56' E 023°35'2 1.9
2015-Jan-12 05:33N 37°54' E 023°36'2 1.8
2015-Jan-12 04:33N 37°55' E 023°34'0 0.0
2015-Jan-12 03:33N 37°55' E 023°34'0 0.0
2015-Jan-12 02:33N 37°55' E 023°34'0 0.0
2015-Jan-12 01:33N 37°55' E 023°34'0 0.0
2015-Jan-12 00:33N 37°55' E 023°34'0 0.0
2015-Jan-11 23:33N 37°55' E 023°34'0 0.0
2015-Jan-11 22:33N 37°55' E 023°34'0 0.0
2015-Jan-11 21:33N 37°55' E 023°34'0 0.0
2015-Jan-11 20:33N 37°55' E 023°34'0 0.0
2015-Jan-11 19:33N 37°55' E 023°34'0 0.1
2015-Jan-11 18:33N 37°55' E 023°34'0 0.0
2015-Jan-11 17:33N 37°55' E 023°34'0 0.0
2015-Jan-11 16:33N 37°55' E 023°34'0 0.0
2015-Jan-11 15:33N 37°55' E 023°34'0 0.0
2015-Jan-11 14:33N 37°55' E 023°34'0 0.0
2015-Jan-11 13:33N 37°55' E 023°34'0 0.0
2015-Jan-11 12:33N 37°55' E 023°34'0 0.0
2015-Jan-11 11:33N 37°55' E 023°34'0 0.0
2015-Jan-11 10:30N 37°55' E 023°34'0 0.0
2015-Jan-11 09:33N 37°55' E 023°34'0 0.1
2015-Jan-11 08:30N 37°55' E 023°34'0 0.0
2015-Jan-11 07:33N 37°55' E 023°34'0 0.1
2015-Jan-11 06:33N 37°55' E 023°34'0 0.1
2015-Jan-11 05:33N 37°55' E 023°34'0 0.0
2015-Jan-11 04:12N 37°55' E 023°34'0 0.1
2015-Jan-11 03:32N 37°55' E 023°34'0 0.0
2015-Jan-11 02:32N 37°55' E 023°34'0 0.0
2015-Jan-11 01:26N 37°55' E 023°34'0 0.0
2015-Jan-11 00:32N 37°55' E 023°34'0 0.0
2015-Jan-10 23:33N 37°55' E 023°34'4 4.2
2015-Jan-10 22:33N 37°52' E 023°37'7 7.4
2015-Jan-10 21:33N 37°46' E 023°42'54 7.4
2015-Jan-10 14:14N 36°52' E 023°40'  
2015-Jan-08 07:12N 42°25' E 015°56'  
Track history (hours):
 
Tides and Currents Weather Stations Pressure Air Temp Water Temp Dewpoint Dewpoint Depression Visibility Wind Speed Wind Dir Waves Ship Positions

Jomi

Last reported at 2015-Jan-16 01:15 UTC. Time now 2015-Jan-26 04:28 UTC.
Position N 40°37' E 022°56'.
Warning: this ship's position is 10 days out of date.

Length 88 m; draft 4.3 m.

Type: Cargo ship. MMSI: 309701000.

Date/timePositionNaut miles runAvg speedWind from/ knotsBaromVisibWave heightAir tempDewpointWater temp
2015-Jan-16 01:15N 40°37' E 022°56'0 0.0
2015-Jan-15 21:28N 40°37' E 022°56'0 0.0
2015-Jan-15 18:12N 40°37' E 022°56'85 7.2
2015-Jan-15 06:21N 39°34' E 024°10'8210.5
2015-Jan-14 22:32N 38°16' E 024°43'2310.0
2015-Jan-14 20:16N 37°54' E 024°35'1810.2
2015-Jan-14 18:33N 37°43' E 024°18'1110.8
2015-Jan-14 17:30N 37°36' E 024°07'2010.2
2015-Jan-14 15:33N 37°40' E 023°43'1010.1
2015-Jan-14 14:33N 37°49' E 023°37'9 9.1
2015-Jan-14 13:33N 37°57' E 023°34'5 4.6
2015-Jan-14 12:31N 38°02' E 023°32'0 0.0
2015-Jan-14 11:31N 38°02' E 023°32'0 0.0
2015-Jan-14 10:31N 38°02' E 023°32'0 0.0
2015-Jan-14 09:31N 38°02' E 023°32'0 0.0
2015-Jan-14 08:31N 38°02' E 023°32'0 0.0
2015-Jan-14 07:31N 38°02' E 023°32'0 0.0
2015-Jan-14 06:31N 38°02' E 023°32'0 0.0
2015-Jan-14 05:31N 38°02' E 023°32'0 0.0
2015-Jan-14 04:31N 38°02' E 023°32'0 0.0
2015-Jan-14 03:28N 38°02' E 023°32'0 0.0
2015-Jan-14 02:31N 38°02' E 023°32'0 0.0
2015-Jan-14 01:31N 38°02' E 023°32'0 0.0
2015-Jan-14 00:31N 38°02' E 023°32'0 0.0
2015-Jan-13 23:31N 38°02' E 023°32'0 0.0
2015-Jan-13 22:31N 38°02' E 023°32'0 0.0
2015-Jan-13 21:31N 38°02' E 023°32'0 0.0
2015-Jan-13 20:31N 38°02' E 023°32'0 0.3
2015-Jan-13 19:31N 38°02' E 023°32'0 0.3
2015-Jan-13 18:31N 38°02' E 023°32'0 0.0
2015-Jan-13 17:31N 38°02' E 023°32'0 0.0
2015-Jan-13 16:31N 38°02' E 023°32'0 0.0
2015-Jan-13 15:31N 38°02' E 023°32'0 0.0
2015-Jan-13 14:31N 38°02' E 023°32'0 0.0
2015-Jan-13 13:31N 38°02' E 023°32'0 0.0
2015-Jan-13 12:31N 38°02' E 023°32'0 0.0
2015-Jan-13 11:31N 38°02' E 023°32'0 0.0
2015-Jan-13 10:28N 38°02' E 023°32'0 0.0
2015-Jan-13 09:28N 38°02' E 023°32'0 0.0
2015-Jan-13 08:28N 38°02' E 023°32'0 0.0
2015-Jan-13 07:34N 38°02' E 023°32'0 0.0
2015-Jan-13 06:33N 38°02' E 023°32'0 0.0
2015-Jan-13 05:33N 38°02' E 023°32'0 0.0
2015-Jan-13 04:30N 38°02' E 023°32'0 0.0
2015-Jan-13 03:33N 38°02' E 023°32'0 0.0
2015-Jan-13 02:33N 38°02' E 023°32'0 0.0
2015-Jan-13 01:33N 38°02' E 023°32'0 0.0
2015-Jan-13 00:33N 38°02' E 023°32'0 0.0
2015-Jan-12 23:33N 38°02' E 023°32'0 0.0
2015-Jan-12 22:33N 38°02' E 023°32'0 0.0
2015-Jan-12 21:33N 38°02' E 023°32'0 0.0
2015-Jan-12 20:33N 38°02' E 023°32'0 0.0
2015-Jan-12 19:33N 38°02' E 023°32'0 0.0
2015-Jan-12 18:33N 38°02' E 023°32'0 0.0
2015-Jan-12 17:30N 38°02' E 023°32'0 0.0
2015-Jan-12 16:30N 38°02' E 023°32'0 0.0
2015-Jan-12 15:31N 38°02' E 023°32'0 0.0
2015-Jan-12 14:26N 38°02' E 023°32'0 0.0
2015-Jan-12 13:07N 38°02' E 023°32'0 0.0
2015-Jan-12 12:22N 38°02' E 023°32'0 0.0
2015-Jan-12 11:31N 38°02' E 023°32'0 0.0
2015-Jan-12 10:31N 38°02' E 023°32'0 0.0
2015-Jan-12 09:31N 38°02' E 023°32'0 0.0
2015-Jan-12 08:31N 38°02' E 023°32'0 0.0
2015-Jan-12 07:25N 38°02' E 023°32'6 6.9
2015-Jan-12 06:33N 37°56' E 023°35'2 1.9
2015-Jan-12 05:33N 37°54' E 023°36'2 1.8
2015-Jan-12 04:33N 37°55' E 023°34'0 0.0
2015-Jan-12 03:33N 37°55' E 023°34'0 0.0
2015-Jan-12 02:33N 37°55' E 023°34'0 0.0
2015-Jan-12 01:33N 37°55' E 023°34'0 0.0
2015-Jan-12 00:33N 37°55' E 023°34'0 0.0
2015-Jan-11 23:33N 37°55' E 023°34'0 0.0
2015-Jan-11 22:33N 37°55' E 023°34'0 0.0
2015-Jan-11 21:33N 37°55' E 023°34'0 0.0
2015-Jan-11 20:33N 37°55' E 023°34'0 0.0
2015-Jan-11 19:33N 37°55' E 023°34'0 0.1
2015-Jan-11 18:33N 37°55' E 023°34'0 0.0
2015-Jan-11 17:33N 37°55' E 023°34'0 0.0
2015-Jan-11 16:33N 37°55' E 023°34'0 0.0
2015-Jan-11 15:33N 37°55' E 023°34'0 0.0
2015-Jan-11 14:33N 37°55' E 023°34'0 0.0
2015-Jan-11 13:33N 37°55' E 023°34'0 0.0
2015-Jan-11 12:33N 37°55' E 023°34'0 0.0
2015-Jan-11 11:33N 37°55' E 023°34'0 0.0
2015-Jan-11 10:30N 37°55' E 023°34'0 0.0
2015-Jan-11 09:33N 37°55' E 023°34'0 0.1
2015-Jan-11 08:30N 37°55' E 023°34'0 0.0
2015-Jan-11 07:33N 37°55' E 023°34'0 0.1
2015-Jan-11 06:33N 37°55' E 023°34'0 0.1
2015-Jan-11 05:33N 37°55' E 023°34'0 0.0
2015-Jan-11 04:12N 37°55' E 023°34'0 0.1
2015-Jan-11 03:32N 37°55' E 023°34'0 0.0
2015-Jan-11 02:32N 37°55' E 023°34'0 0.0
2015-Jan-11 01:26N 37°55' E 023°34'0 0.0
2015-Jan-11 00:32N 37°55' E 023°34'0 0.0
2015-Jan-10 23:33N 37°55' E 023°34'4 4.2
2015-Jan-10 22:33N 37°52' E 023°37'7 7.4
2015-Jan-10 21:33N 37°46' E 023°42'54 7.4
2015-Jan-10 14:14N 36°52' E 023°40'  
2015-Jan-08 07:12N 42°25' E 015°56'  

Dump ship's entire track history